Time;durP1;ratioP1;P1;durP2;ratioP2;P2;SDS_P1;SDS_P2;PMS_P1;PMS_P2;Temp;Humidity;BMP_temperature;BMP_pressure;BME280_temperature;BME280_humidity;BME280_pressure;Samples;Min_cycle;Max_cycle;Signal;HPM_P1;HPM_P2
2022/05/23 00:01:15;;;;;;;;;;;;;;;22.78;41.16;99712.47;5000924;28;6796;-75
2022/05/23 00:03:41;;;;;;;;;;;;;;;22.70;41.24;99709.09;5002693;28;6910;-75
2022/05/23 00:06:07;;;;;;;;;;;;;;;22.61;41.51;99705.72;5001017;28;6792;-75
2022/05/23 00:08:33;;;;;;;;;;;;;;;22.56;42.10;99704.06;5004126;28;6929;-75
2022/05/23 00:10:59;;;;;;;;;;;;;;;22.48;42.28;99696.28;5004441;28;6792;-75
2022/05/23 00:13:24;;;;;;;;;;;;;;;22.45;42.01;99691.97;5001682;28;6823;-75
2022/05/23 00:15:50;;;;;;;;;;;;;;;22.45;42.10;99691.09;5001310;28;6792;-75
2022/05/23 00:18:16;;;;;;;;;;;;;;;22.44;42.01;99682.38;5003346;28;6863;-75
2022/05/23 00:20:42;;;;;;;;;;;;;;;22.45;42.14;99691.97;5001958;28;7320;-75
2022/05/23 00:23:08;;;;;;;;;;;;;;;22.49;42.20;99695.41;5002283;28;6787;-75
2022/05/23 00:25:34;;;;;;;;;;;;;;;22.51;42.26;99680.63;5003416;28;7098;-75
2022/05/23 00:27:59;;;;;;;;;;;;;;;22.54;42.02;99682.31;5000153;28;6962;-75
2022/05/23 00:30:27;;;;;;;;;;;;;;;22.55;42.33;99687.50;5019311;28;6960;-75
2022/05/23 00:35:44;;;;;;;;;;;;;;;22.57;42.21;99690.97;5003935;28;7082;-75
2022/05/23 00:38:10;;;;;;;;;;;;;;;22.59;42.46;99690.97;5000663;28;7050;-75
2022/05/23 00:44:07;;;;;;;;;;;;;;;22.54;42.42;99679.69;5002031;28;6899;-73
2022/05/23 00:46:34;;;;;;;;;;;;;;;22.54;42.75;99679.69;5003461;28;6856;-73
2022/05/23 00:49:05;;;;;;;;;;;;;;;22.52;42.85;99674.50;5002518;28;6973;-73
2022/05/23 00:51:32;;;;;;;;;;;;;;;22.53;42.85;99671.00;5005599;28;6880;-73
2022/05/23 00:54:01;;;;;;;;;;;;;;;22.53;42.75;99673.63;4996931;28;6879;-73
2022/05/23 00:56:41;;;;;;;;;;;;;;;22.53;42.61;99673.63;4986615;28;7892;-73
2022/05/23 00:59:09;;;;;;;;;;;;;;;22.53;42.58;99671.00;5003173;28;7200;-73
2022/05/23 01:01:38;;;;;;;;;;;;;;;22.52;42.59;99661.47;5000116;28;6962;-73
2022/05/23 01:04:06;;;;;;;;;;;;;;;22.51;42.90;99654.50;5001155;28;7014;-73
2022/05/23 01:06:33;;;;;;;;;;;;;;;22.51;42.67;99657.13;4996235;28;6824;-73
2022/05/23 01:08:59;;;;;;;;;;;;;;;22.50;43.06;99654.53;4994542;28;6796;-73
2022/05/23 01:11:26;;;;;;;;;;;;;;;22.50;43.19;99657.97;5010501;28;6796;-73
2022/05/23 01:13:54;;;;;;;;;;;;;;;22.48;42.94;99655.38;4975135;28;7137;-73
2022/05/23 01:16:26;;;;;;;;;;;;;;;22.49;42.84;99661.47;5000609;28;6796;-73
2022/05/23 01:18:52;;;;;;;;;;;;;;;22.48;43.23;99659.72;5002768;28;6880;-73
2022/05/23 01:21:58;;;;;;;;;;;;;;;22.45;43.38;99650.22;5000008;28;6823;-73
2022/05/23 01:24:44;;;;;;;;;;;;;;;22.44;43.29;99652.81;4999917;28;8148;-73
2022/05/23 01:27:11;;;;;;;;;;;;;;;22.43;43.41;99651.09;5000874;28;7097;-73
2022/05/23 01:29:37;;;;;;;;;;;;;;;22.42;43.76;99649.38;5000056;28;7176;-73
2022/05/23 01:32:04;;;;;;;;;;;;;;;22.40;43.93;99649.38;4985573;28;7210;-73
2022/05/23 01:34:29;;;;;;;;;;;;;;;22.40;43.96;99644.16;4978846;28;6816;-73
2022/05/23 01:36:58;;;;;;;;;;;;;;;22.38;44.20;99642.44;5002084;28;6824;-73
2022/05/23 01:39:24;;;;;;;;;;;;;;;22.37;44.34;99640.72;5003310;28;7043;-73
2022/05/23 01:41:49;;;;;;;;;;;;;;;22.35;44.10;99643.34;5008113;28;6860;-73
2022/05/23 01:44:15;;;;;;;;;;;;;;;22.32;44.67;99641.66;5005049;28;7105;-73
2022/05/23 01:46:41;;;;;;;;;;;;;;;22.30;44.66;99643.41;4999218;28;7130;-73
2022/05/23 01:49:06;;;;;;;;;;;;;;;22.26;44.50;99633.91;5005227;28;6796;-73
2022/05/23 01:51:32;;;;;;;;;;;;;;;22.24;44.49;99635.66;4990049;28;7035;-73
2022/05/23 01:53:57;;;;;;;;;;;;;;;22.22;44.48;99636.56;5007159;28;6855;-73
2022/05/23 01:56:23;;;;;;;;;;;;;;;22.21;44.39;99630.47;5004270;28;6826;-73
2022/05/23 02:01:33;;;;;;;;;;;;;;;22.20;44.90;99626.13;5000236;28;8032;-73
2022/05/23 02:03:59;;;;;;;;;;;;;;;22.22;44.75;99621.78;5005028;28;6800;-73
2022/05/23 02:06:24;;;;;;;;;;;;;;;22.22;44.58;99619.19;5005185;28;6895;-73
2022/05/23 02:08:50;;;;;;;;;;;;;;;22.21;44.53;99614.81;4990831;28;6780;-73
2022/05/23 02:11:16;;;;;;;;;;;;;;;22.23;44.39;99612.19;5000762;28;6879;-73
2022/05/23 02:13:44;;;;;;;;;;;;;;;22.23;44.37;99612.19;5005502;28;7109;-73
2022/05/23 02:16:11;;;;;;;;;;;;;;;22.20;44.20;99608.75;5002755;28;6791;-73
2022/05/23 02:18:37;;;;;;;;;;;;;;;22.20;44.45;99606.13;5002740;28;6925;-73
2022/05/23 02:21:03;;;;;;;;;;;;;;;22.21;44.47;99606.97;5004988;28;6966;-73
2022/05/23 02:23:28;;;;;;;;;;;;;;;22.21;44.22;99606.97;5004190;28;6807;-73
2022/05/23 02:25:54;;;;;;;;;;;;;;;22.21;44.52;99604.38;5005577;28;6894;-73
2022/05/23 02:28:20;;;;;;;;;;;;;;;22.22;44.45;99600.91;5003729;28;6809;-73
2022/05/23 02:30:48;;;;;;;;;;;;;;;22.20;44.12;99587.88;4982029;28;7092;-73
2022/05/23 02:33:15;;;;;;;;;;;;;;;22.20;44.58;99592.22;5003988;28;6990;-73
2022/05/23 02:35:42;;;;;;;;;;;;;;;22.19;44.63;99585.28;4999871;28;6804;-73
2022/05/23 02:38:07;;;;;;;;;;;;;;;22.18;44.57;99580.94;5002630;28;6887;-73
2022/05/23 02:40:34;;;;;;;;;;;;;;;22.18;44.75;99588.75;5005225;28;6784;-73
2022/05/23 02:42:59;;;;;;;;;;;;;;;22.17;44.71;99581.81;5003885;28;7272;-73
2022/05/23 02:45:25;;;;;;;;;;;;;;;22.15;44.34;99581.84;5004051;28;6879;-73
2022/05/23 02:47:51;;;;;;;;;;;;;;;22.14;44.22;99571.44;5001965;28;7117;-74
2022/05/23 02:50:17;;;;;;;;;;;;;;;22.15;44.70;99570.56;5005873;28;6796;-74
2022/05/23 02:52:44;;;;;;;;;;;;;;;22.16;44.57;99569.66;5004018;28;7121;-74
2022/05/23 02:55:11;;;;;;;;;;;;;;;22.15;44.71;99563.56;5007221;28;7120;-74
2022/05/23 02:57:37;;;;;;;;;;;;;;;22.15;44.64;99549.69;5002033;28;6795;-74
2022/05/23 03:00:05;;;;;;;;;;;;;;;22.14;44.82;99547.94;5006812;28;6780;-74
2022/05/23 03:05:15;;;;;;;;;;;;;;;22.08;44.77;99541.06;5007002;28;7455;-73
2022/05/23 03:07:41;;;;;;;;;;;;;;;22.05;44.93;99534.13;5004765;28;6832;-73
2022/05/23 03:10:08;;;;;;;;;;;;;;;22.01;44.90;99529.81;5005428;28;6851;-73
2022/05/23 03:12:36;;;;;;;;;;;;;;;21.99;44.93;99526.38;5002829;28;6792;-73
2022/05/23 03:15:06;;;;;;;;;;;;;;;21.96;44.96;99522.94;5002920;28;6808;-73
2022/05/23 03:17:32;;;;;;;;;;;;;;;21.92;45.05;99523.00;5001296;28;7007;-73
2022/05/23 03:19:58;;;;;;;;;;;;;;;21.90;44.82;99513.47;4994176;28;7409;-73
2022/05/23 03:27:53;;;;;;;;;;;;;;;21.77;45.38;99497.09;4992724;28;6970;-74
2022/05/23 03:30:19;;;;;;;;;;;;;;;21.74;45.36;99497.16;5002120;28;6784;-74
2022/05/23 03:32:44;;;;;;;;;;;;;;;21.73;45.30;99490.22;4975701;28;6829;-74
2022/05/23 03:35:10;;;;;;;;;;;;;;;21.70;45.31;99478.06;5003161;28;6947;-74
2022/05/23 03:37:36;;;;;;;;;;;;;;;21.69;45.31;99471.13;5005154;28;7290;-74
2022/05/23 03:40:05;;;;;;;;;;;;;;;21.67;45.53;99465.06;5001453;28;6784;-74
2022/05/23 03:42:31;;;;;;;;;;;;;;;21.65;45.34;99464.22;5001892;28;6883;-74
2022/05/23 03:44:57;;;;;;;;;;;;;;;21.63;45.68;99450.31;5005145;28;6780;-74
2022/05/23 03:47:23;;;;;;;;;;;;;;;21.61;45.63;99437.31;5001489;28;6779;-74
2022/05/23 03:49:48;;;;;;;;;;;;;;;21.60;45.66;99435.59;5005399;28;6827;-74
2022/05/23 03:52:14;;;;;;;;;;;;;;;21.59;45.49;99430.38;5001310;28;6784;-74
2022/05/23 03:54:40;;;;;;;;;;;;;;;21.60;45.37;99419.06;5003318;28;7202;-74
2022/05/23 03:57:06;;;;;;;;;;;;;;;21.60;45.58;99422.56;5004610;28;6788;-74
2022/05/23 03:59:32;;;;;;;;;;;;;;;21.61;45.50;99419.06;4988701;28;7180;-74
2022/05/23 04:01:59;;;;;;;;;;;;;;;21.62;45.50;99419.91;5002118;28;6804;-74
2022/05/23 04:04:29;;;;;;;;;;;;;;;21.63;45.75;99425.09;5002537;28;6796;-74
2022/05/23 04:07:05;;;;;;;;;;;;;;;21.64;45.72;99418.16;4996666;28;6796;-74
2022/05/23 04:09:32;;;;;;;;;;;;;;;21.65;45.53;99409.47;4980598;28;6795;-74
2022/05/23 04:11:58;;;;;;;;;;;;;;;21.66;45.91;99405.97;4995478;28;6792;-74
2022/05/23 04:14:26;;;;;;;;;;;;;;;21.66;45.92;99403.34;5001366;28;7115;-74
2022/05/23 04:16:53;;;;;;;;;;;;;;;21.67;46.02;99404.19;4979388;28;7237;-74
2022/05/23 04:19:20;;;;;;;;;;;;;;;21.68;45.96;99409.44;4997832;28;6808;-74
2022/05/23 04:21:48;;;;;;;;;;;;;;;21.71;45.73;99408.53;4973991;28;7006;-74
2022/05/23 04:24:17;;;;;;;;;;;;;;;21.72;45.92;99413.72;4962939;28;6998;-74
2022/05/23 04:26:43;;;;;;;;;;;;;;;21.75;46.00;99423.25;4997322;28;7883;-74
2022/05/23 04:29:09;;;;;;;;;;;;;;;21.76;45.71;99415.41;4980584;28;7478;-74
2022/05/23 04:31:36;;;;;;;;;;;;;;;21.78;46.10;99413.63;4998861;28;8113;-74
2022/05/23 04:36:50;;;;;;;;;;;;;;;21.83;45.48;99399.69;5006278;28;6982;-74
2022/05/23 04:39:16;;;;;;;;;;;;;;;21.83;45.64;99400.53;4986706;28;7031;-74
2022/05/23 04:41:42;;;;;;;;;;;;;;;21.84;45.42;99389.22;5003639;28;7081;-74
2022/05/23 04:44:08;;;;;;;;;;;;;;;21.85;45.35;99382.28;5004422;28;6891;-74
2022/05/23 04:46:34;;;;;;;;;;;;;;;21.82;45.55;99382.28;5003857;28;6950;-74
2022/05/23 04:51:44;;;;;;;;;;;;;;;21.75;45.47;99373.69;4998124;28;7976;-75
2022/05/23 04:54:10;;;;;;;;;;;;;;;21.77;45.96;99364.97;4999261;28;7171;-75
2022/05/23 04:56:37;;;;;;;;;;;;;;;21.85;45.59;99367.47;5000041;28;6879;-75
2022/05/23 04:59:04;;;;;;;;;;;;;;;21.91;45.60;99371.72;4976674;28;6978;-75
2022/05/23 05:01:30;;;;;;;;;;;;;;;21.94;45.44;99368.22;4991533;28;6981;-75
2022/05/23 05:03:57;;;;;;;;;;;;;;;21.95;45.37;99363.00;4999771;28;7264;-74
2022/05/23 05:06:26;;;;;;;;;;;;;;;21.96;45.49;99349.06;5002609;28;7102;-74
2022/05/23 05:08:52;;;;;;;;;;;;;;;21.97;45.34;99350.78;4995075;28;6966;-74
2022/05/23 05:11:18;;;;;;;;;;;;;;;22.00;45.52;99345.50;4992499;28;6879;-74
2022/05/23 05:13:44;;;;;;;;;;;;;;;22.06;45.55;99340.19;5014869;28;6863;-74
2022/05/23 05:16:12;;;;;;;;;;;;;;;22.17;45.35;99329.59;4998026;28;7164;-74
2022/05/23 05:18:38;;;;;;;;;;;;;;;22.30;45.21;99331.97;4999535;28;6820;-74
2022/05/23 05:21:10;;;;;;;;;;;;;;;22.42;45.39;99325.69;4999492;28;6813;-75
2022/05/23 05:23:36;;;;;;;;;;;;;;;22.53;44.88;99323.78;4996963;28;6907;-75
2022/05/23 05:26:04;;;;;;;;;;;;;;;22.61;44.91;99324.50;4980978;28;6792;-75
2022/05/23 05:28:30;;;;;;;;;;;;;;;22.67;44.54;99312.19;4986396;28;6819;-75
2022/05/23 05:31:05;;;;;;;;;;;;;;;22.67;44.54;99314.81;5014411;28;6917;-75
2022/05/23 05:33:40;;;;;;;;;;;;;;;22.67;43.94;99310.47;4997241;28;7250;-75
2022/05/23 05:36:16;;;;;;;;;;;;;;;22.66;44.19;99319.19;5000941;28;6899;-75
2022/05/23 05:38:57;;;;;;;;;;;;;;;22.64;44.39;99312.25;4997492;28;6812;-75
2022/05/23 05:41:32;;;;;;;;;;;;;;;22.60;44.20;99314.94;4999916;28;6966;-75
2022/05/23 05:44:05;;;;;;;;;;;;;;;22.60;44.04;99314.06;5005921;28;6816;-75
2022/05/23 05:46:38;;;;;;;;;;;;;;;22.62;44.29;99314.88;4978574;28;6992;-75
2022/05/23 05:49:12;;;;;;;;;;;;;;;22.65;44.14;99307.03;5005391;28;6866;-75
2022/05/23 05:51:41;;;;;;;;;;;;;;;22.69;44.31;99299.97;5004285;28;7147;-75
2022/05/23 05:54:13;;;;;;;;;;;;;;;22.74;44.18;99298.13;4976059;28;7146;-75
2022/05/23 05:56:39;;;;;;;;;;;;;;;22.81;44.09;99296.25;4989210;28;6816;-75
2022/05/23 05:59:07;;;;;;;;;;;;;;;22.89;43.91;99300.44;5006928;28;6967;-75
2022/05/23 06:01:32;;;;;;;;;;;;;;;22.97;43.78;99286.34;5001118;28;7226;-75
2022/05/23 06:03:58;;;;;;;;;;;;;;;23.05;43.45;99288.81;4988393;28;6900;-75
2022/05/23 06:11:52;;;;;;;;;;;;;;;23.31;43.71;99280.44;5005699;28;7150;-75
2022/05/23 06:14:18;;;;;;;;;;;;;;;23.43;44.09;99274.91;5005371;28;6902;-75
2022/05/23 06:16:43;;;;;;;;;;;;;;;23.56;43.70;99280.72;5003936;28;7242;-75
2022/05/23 06:19:09;;;;;;;;;;;;;;;23.70;43.36;99275.16;5005661;28;6815;-75
2022/05/23 06:21:35;;;;;;;;;;;;;;;23.85;43.45;99283.53;5001311;28;6799;-76
2022/05/23 06:24:00;;;;;;;;;;;;;;;23.99;43.36;99277.94;4979696;28;6776;-75
2022/05/23 06:26:27;;;;;;;;;;;;;;;24.12;42.96;99283.75;5003453;28;6788;-75
2022/05/23 06:28:53;;;;;;;;;;;;;;;24.20;42.66;99275.72;4990288;28;8517;-75
2022/05/23 06:31:20;;;;;;;;;;;;;;;24.25;42.67;99279.06;5004527;28;6895;-75
2022/05/23 06:33:46;;;;;;;;;;;;;;;24.27;42.40;99278.13;5005916;28;6800;-75
2022/05/23 06:36:15;;;;;;;;;;;;;;;24.28;42.02;99278.97;5002801;28;7209;-76
2022/05/23 06:38:42;;;;;;;;;;;;;;;24.31;42.53;99275.41;5003489;28;6912;-75
2022/05/23 06:41:10;;;;;;;;;;;;;;;24.35;42.21;99282.31;4996455;28;6812;-75
2022/05/23 06:43:39;;;;;;;;;;;;;;;24.36;42.19;99277.00;5005581;28;6807;-75
2022/05/23 06:46:05;;;;;;;;;;;;;;;24.37;42.20;99270.03;5005194;28;7058;-75
2022/05/23 06:48:31;;;;;;;;;;;;;;;24.40;41.73;99264.69;4999993;28;7260;-75
2022/05/23 06:50:57;;;;;;;;;;;;;;;24.40;41.62;99260.34;4974344;28;6943;-75
2022/05/23 06:53:27;;;;;;;;;;;;;;;24.44;41.65;99257.63;4999718;28;7205;-75
2022/05/23 06:55:53;;;;;;;;;;;;;;;24.48;41.44;99254.00;5012248;28;7263;-75
2022/05/23 06:58:21;;;;;;;;;;;;;;;24.53;41.87;99250.38;4984282;28;6983;-75
2022/05/23 07:00:49;;;;;;;;;;;;;;;24.62;41.54;99248.38;4997486;28;7236;-75
2022/05/23 07:03:15;;;;;;;;;;;;;;;24.69;41.74;99236.84;5002239;28;6816;-75
2022/05/23 07:13:55;;;;;;;;;;;;;;;25.56;42.03;99213.28;4998068;28;6891;-75
2022/05/23 07:16:22;;;;;;;;;;;;;;;25.95;41.44;99214.59;4995396;28;7098;-75
2022/05/23 07:18:48;;;;;;;;;;;;;;;26.29;40.98;99218.69;5000202;28;6828;-75
2022/05/23 07:21:15;;;;;;;;;;;;;;;26.51;40.44;99212.66;4978980;28;6969;-75
2022/05/23 07:23:42;;;;;;;;;;;;;;;26.63;39.92;99213.97;5012863;28;7063;-75
2022/05/23 07:26:15;;;;;;;;;;;;;;;26.71;39.72;99214.53;4999974;28;6784;-75
2022/05/23 07:28:43;;;;;;;;;;;;;;;26.75;39.47;99213.50;4999875;28;6973;-75
2022/05/23 07:31:11;;;;;;;;;;;;;;;26.80;39.50;99213.34;4986303;28;7141;-75
2022/05/23 07:33:39;;;;;;;;;;;;;;;26.82;39.34;99205.38;5001338;28;6800;-75
2022/05/23 07:36:08;;;;;;;;;;;;;;;26.84;39.03;99195.66;4996271;28;7059;-75
2022/05/23 07:38:34;;;;;;;;;;;;;;;26.92;39.19;99191.00;5009026;28;6823;-75
2022/05/23 07:41:00;;;;;;;;;;;;;;;27.01;39.08;99198.50;4991439;28;7115;-75
2022/05/23 07:43:26;;;;;;;;;;;;;;;27.15;39.10;99200.59;4985389;28;6875;-75
2022/05/23 07:45:53;;;;;;;;;;;;;;;27.28;38.55;99202.72;5014703;28;6879;-75
2022/05/23 07:48:20;;;;;;;;;;;;;;;27.36;38.47;99205.91;5000555;28;7856;-75
2022/05/23 07:50:48;;;;;;;;;;;;;;;27.45;38.66;99199.44;5001211;28;6799;-75
2022/05/23 08:01:27;;;;;;;;;;;;;;;27.50;38.09;99178.19;4999827;28;7358;-75
2022/05/23 08:03:54;;;;;;;;;;;;;;;27.47;38.01;99178.31;4975620;28;7753;-75
2022/05/23 08:06:20;;;;;;;;;;;;;;;27.45;37.87;99173.97;5001339;28;6815;-75
2022/05/23 08:08:47;;;;;;;;;;;;;;;27.44;38.21;99176.69;5002783;28;6880;-75
2022/05/23 08:11:13;;;;;;;;;;;;;;;27.39;37.95;99176.00;4975534;28;7003;-75
2022/05/23 08:13:45;;;;;;;;;;;;;;;27.34;38.12;99197.22;5000977;28;6808;-75
2022/05/23 08:16:10;;;;;;;;;;;;;;;27.29;38.08;99178.16;5000139;28;6904;-75
2022/05/23 08:18:36;;;;;;;;;;;;;;;27.24;38.23;99178.34;5000949;28;7046;-75
2022/05/23 08:21:03;;;;;;;;;;;;;;;27.22;38.17;99181.97;5003952;28;7070;-75
2022/05/23 08:23:29;;;;;;;;;;;;;;;27.23;38.29;99179.25;5002846;28;6796;-75
2022/05/23 08:25:56;;;;;;;;;;;;;;;27.26;38.22;99171.25;4989074;28;7277;-75
2022/05/23 08:28:21;;;;;;;;;;;;;;;27.31;38.01;99163.16;4992180;28;6792;-75
2022/05/23 08:30:47;;;;;;;;;;;;;;;27.38;37.99;99166.41;5004795;28;6938;-75
2022/05/23 08:33:13;;;;;;;;;;;;;;;27.48;37.93;99175.63;5004630;28;6811;-75
2022/05/23 08:35:39;;;;;;;;;;;;;;;27.58;38.28;99184.88;5003037;28;6851;-75
2022/05/23 08:38:05;;;;;;;;;;;;;;;27.71;38.63;99174.69;5004979;28;6928;-75
2022/05/23 08:41:16;;;;;;;;;;;;;;;27.89;38.18;99181.84;5001704;28;6795;-75
2022/05/23 08:44:19;;;;;;;;;;;;;;;28.05;38.29;99174.13;5001382;28;6994;-75
2022/05/23 08:47:08;;;;;;;;;;;;;;;28.26;37.68;99159.19;4999958;28;7209;-75
2022/05/23 08:49:58;;;;;;;;;;;;;;;28.54;37.95;99160.53;5003217;28;7856;-76
2022/05/23 08:52:49;;;;;;;;;;;;;;;29.10;38.04;99157.94;5000550;28;6899;-75
2022/05/23 08:55:36;;;;;;;;;;;;;;;30.01;37.90;99157.78;5002594;28;6816;-75
2022/05/23 08:58:30;;;;;;;;;;;;;;;31.17;36.28;99145.34;5004449;28;6871;-75
2022/05/23 09:01:15;;;;;;;;;;;;;;;32.08;34.64;99138.28;5001496;28;7022;-75
2022/05/23 09:04:24;;;;;;;;;;;;;;;32.44;33.94;99138.72;5001675;28;7163;-75
2022/05/23 09:06:51;;;;;;;;;;;;;;;32.64;33.54;99131.28;4990237;28;7253;-75
2022/05/23 09:09:22;;;;;;;;;;;;;;;32.75;33.12;99126.19;4999468;28;7000;-75
2022/05/23 09:12:02;;;;;;;;;;;;;;;32.77;33.07;99126.91;5001209;28;7201;-75
2022/05/23 09:14:28;;;;;;;;;;;;;;;32.71;32.59;99110.56;5001397;28;6808;-75
2022/05/23 09:16:57;;;;;;;;;;;;;;;32.60;32.61;99100.63;4982010;28;6815;-75
2022/05/23 09:19:37;;;;;;;;;;;;;;;32.45;32.54;99091.88;5003438;28;7261;-75
2022/05/23 09:22:28;;;;;;;;;;;;;;;32.33;32.35;99099.63;5001260;28;7010;-75
2022/05/23 09:25:00;;;;;;;;;;;;;;;32.25;32.55;99075.41;5003417;28;6803;-75
2022/05/23 09:27:36;;;;;;;;;;;;;;;32.18;32.54;99074.97;5016314;28;7208;-75
2022/05/23 09:30:09;;;;;;;;;;;;;;;32.15;33.20;99067.19;5007290;28;7287;-75
2022/05/23 09:32:49;;;;;;;;;;;;;;;32.11;32.76;99068.34;5014354;28;7133;-75
2022/05/23 09:35:43;;;;;;;;;;;;;;;32.07;32.83;99064.19;4993313;28;7283;-75
2022/05/23 09:38:32;;;;;;;;;;;;;;;32.15;32.82;99075.13;4998052;28;6950;-75
2022/05/23 09:40:58;;;;;;;;;;;;;;;32.35;32.71;99059.75;4988257;28;7269;-75
2022/05/23 09:49:11;;;;;;;;;;;;;;;34.40;30.66;99043.31;4999584;28;6962;-75
2022/05/23 09:52:14;;;;;;;;;;;;;;;35.35;29.77;99040.72;4976096;28;6812;-75
2022/05/23 09:54:52;;;;;;;;;;;;;;;36.22;28.92;99028.66;4996316;28;6842;-75
2022/05/23 09:57:39;;;;;;;;;;;;;;;36.86;28.34;99021.63;5001362;28;7229;-75
2022/05/23 10:00:23;;;;;;;;;;;;;;;37.54;27.39;99030.22;5003753;28;6800;-75
2022/05/23 10:02:59;;;;;;;;;;;;;;;37.97;26.99;99021.09;4999919;28;6796;-76
2022/05/23 10:05:34;;;;;;;;;;;;;;;38.19;27.31;99020.00;5000465;28;6812;-76
2022/05/23 10:08:12;;;;;;;;;;;;;;;38.42;26.74;99022.44;4976432;28;6888;-76
2022/05/23 10:10:53;;;;;;;;;;;;;;;38.71;26.46;99007.38;4996839;28;7457;-76
2022/05/23 10:13:32;;;;;;;;;;;;;;;39.07;25.58;99001.41;5002537;28;6943;-76
2022/05/23 10:16:10;;;;;;;;;;;;;;;39.38;25.55;98993.16;5002906;28;7120;-76
2022/05/23 10:19:02;;;;;;;;;;;;;;;39.74;25.45;98992.44;5003284;28;6832;-76
2022/05/23 10:21:37;;;;;;;;;;;;;;;40.05;25.09;98978.72;5000898;28;7037;-76
2022/05/23 10:24:23;;;;;;;;;;;;;;;40.23;24.66;98979.59;4995234;28;6835;-76
2022/05/23 10:26:56;;;;;;;;;;;;;;;40.04;24.37;98966.31;5000382;28;7015;-76
2022/05/23 10:29:47;;;;;;;;;;;;;;;39.70;24.39;98960.59;5003253;28;7188;-76
2022/05/23 10:32:27;;;;;;;;;;;;;;;39.22;24.54;98965.16;5002762;28;6804;-75
2022/05/23 10:35:20;;;;;;;;;;;;;;;38.58;24.60;98965.72;5007108;28;6812;-75
2022/05/23 10:37:46;;;;;;;;;;;;;;;37.87;24.90;98956.06;5018663;28;7042;-75
2022/05/23 10:43:20;;;;;;;;;;;;;;;36.98;26.35;98955.69;5002018;28;6879;-75
2022/05/23 10:45:59;;;;;;;;;;;;;;;37.03;26.75;98956.09;5001853;28;6992;-75
2022/05/23 10:48:59;;;;;;;;;;;;;;;37.23;26.75;98942.88;5001239;28;6812;-75
2022/05/23 10:51:54;;;;;;;;;;;;;;;37.51;26.00;98935.13;4995834;28;6808;-75
2022/05/23 10:54:36;;;;;;;;;;;;;;;37.92;25.64;98925.25;5005969;28;7050;-75
2022/05/23 10:57:45;;;;;;;;;;;;;;;38.29;25.45;98918.38;5004249;28;7208;-75
2022/05/23 11:00:23;;;;;;;;;;;;;;;38.65;25.13;98909.78;4996478;28;6808;-75
2022/05/23 11:03:14;;;;;;;;;;;;;;;39.09;25.13;98898.53;5004184;28;6815;-75
2022/05/23 11:06:16;;;;;;;;;;;;;;;39.58;24.38;98895.63;5005317;28;6816;-75
2022/05/23 11:09:03;;;;;;;;;;;;;;;39.77;23.94;98884.91;5000111;28;6954;-75
2022/05/23 11:11:55;;;;;;;;;;;;;;;39.61;24.02;98877.56;5000638;28;6999;-75
2022/05/23 11:14:55;;;;;;;;;;;;;;;39.68;24.29;98871.44;5001523;28;6819;-76
2022/05/23 11:17:47;;;;;;;;;;;;;;;39.78;24.13;98865.16;5001498;28;6836;-76
2022/05/23 11:20:28;;;;;;;;;;;;;;;39.57;24.09;98852.88;5001936;28;6911;-76
2022/05/23 11:23:08;;;;;;;;;;;;;;;39.03;24.48;98856.28;5001284;28;7005;-76
2022/05/23 11:25:52;;;;;;;;;;;;;;;38.44;24.92;98862.63;5006086;28;6821;-76
2022/05/23 11:35:11;;;;;;;;;;;;;;;37.92;25.67;98849.56;4995826;28;6820;-76
2022/05/23 11:37:49;;;;;;;;;;;;;;;37.59;25.62;98840.97;4988639;28;7161;-76
2022/05/23 11:40:30;;;;;;;;;;;;;;;37.27;25.99;98836.66;5001327;28;6827;-74
2022/05/23 11:43:15;;;;;;;;;;;;;;;36.96;26.86;98845.53;5005711;28;6823;-74
2022/05/23 11:46:05;;;;;;;;;;;;;;;36.76;26.97;98847.25;4998319;28;6982;-74
2022/05/23 11:48:34;;;;;;;;;;;;;;;36.72;26.85;98846.69;4990839;28;6828;-74
2022/05/23 11:51:32;;;;;;;;;;;;;;;36.54;27.33;98833.09;4998533;28;6918;-74
2022/05/23 11:54:01;;;;;;;;;;;;;;;36.22;27.25;98826.84;5016894;28;7141;-74
2022/05/23 11:56:35;;;;;;;;;;;;;;;35.86;28.08;98831.59;5004382;28;6879;-74
2022/05/23 11:59:03;;;;;;;;;;;;;;;35.46;28.20;98827.72;5005741;28;7239;-74
2022/05/23 12:01:30;;;;;;;;;;;;;;;34.99;28.37;98826.06;4987898;28;6959;-74
2022/05/23 12:03:56;;;;;;;;;;;;;;;34.55;28.69;98825.94;4998558;28;7191;-74
2022/05/23 12:06:24;;;;;;;;;;;;;;;34.14;29.25;98838.72;4996020;28;6962;-74
2022/05/23 12:09:13;;;;;;;;;;;;;;;33.74;29.75;98831.06;5002478;28;7860;-74
2022/05/23 12:12:14;;;;;;;;;;;;;;;33.38;30.47;98830.97;4998527;28;6812;-74
2022/05/23 12:14:39;;;;;;;;;;;;;;;33.04;30.19;98839.53;4992073;28;7210;-74
2022/05/23 12:17:31;;;;;;;;;;;;;;;32.72;30.46;98836.44;5017946;28;6987;-74
2022/05/23 12:20:22;;;;;;;;;;;;;;;32.37;31.03;98837.94;5001428;28;6816;-74
2022/05/23 12:23:11;;;;;;;;;;;;;;;31.97;31.15;98839.63;5001713;28;6843;-74
2022/05/23 12:25:37;;;;;;;;;;;;;;;31.63;31.72;98840.91;4990098;28;7265;-73
2022/05/23 12:28:16;;;;;;;;;;;;;;;31.27;32.04;98851.13;5017662;28;6807;-73
2022/05/23 12:31:03;;;;;;;;;;;;;;;30.88;33.51;98851.69;5000398;28;6981;-73
2022/05/23 12:33:29;;;;;;;;;;;;;;;30.54;33.78;98851.06;4998749;28;6827;-73
2022/05/23 12:36:05;;;;;;;;;;;;;;;30.31;34.58;98837.41;4999983;28;6954;-74
2022/05/23 12:39:21;;;;;;;;;;;;;;;30.15;34.66;98847.19;4995390;28;7885;-74
2022/05/23 12:42:14;;;;;;;;;;;;;;;29.99;34.82;98853.31;5002914;28;7510;-74
2022/05/23 12:44:58;;;;;;;;;;;;;;;29.85;35.12;98850.63;5001727;28;6886;-74
2022/05/23 12:47:44;;;;;;;;;;;;;;;29.72;35.09;98851.31;5003638;28;6972;-74
2022/05/23 12:50:47;;;;;;;;;;;;;;;29.55;35.63;98860.19;5000311;28;7023;-74
2022/05/23 12:53:29;;;;;;;;;;;;;;;29.36;35.56;98868.25;4982588;28;7144;-74
2022/05/23 12:56:45;;;;;;;;;;;;;;;29.07;36.54;98855.69;4995362;28;7225;-74
2022/05/23 12:59:40;;;;;;;;;;;;;;;28.47;38.11;98858.75;4998782;28;7295;-73
2022/05/23 13:02:19;;;;;;;;;;;;;;;27.82;40.24;98868.91;5001438;28;6819;-76
2022/05/23 13:04:56;;;;;;;;;;;;;;;27.35;41.52;98864.06;5000956;28;6832;-76
2022/05/23 13:08:18;;;;;;;;;;;;;;;26.83;42.47;98854.94;5013462;28;6823;-75
2022/05/23 13:10:57;;;;;;;;;;;;;;;26.43;43.61;98841.75;4943114;28;7204;-75
2022/05/23 13:13:37;;;;;;;;;;;;;;;26.12;44.80;98856.97;4992509;28;7049;-75
2022/05/23 13:16:24;;;;;;;;;;;;;;;25.85;45.88;98851.09;5000090;28;6845;-75
2022/05/23 13:27:13;;;;;;;;;;;;;;;25.39;48.57;98817.84;4999258;28;6884;-75
2022/05/23 13:29:40;;;;;;;;;;;;;;;25.41;48.91;98816.00;4996694;28;6808;-75
2022/05/23 13:32:12;;;;;;;;;;;;;;;25.54;48.99;98807.69;4992539;28;7057;-75
2022/05/23 13:34:44;;;;;;;;;;;;;;;25.83;49.46;98795.19;4982773;28;6946;-75
2022/05/23 13:37:31;;;;;;;;;;;;;;;26.34;49.73;98787.84;4999943;28;6812;-75
2022/05/23 13:40:10;;;;;;;;;;;;;;;26.89;49.27;98783.75;4978441;28;7154;-75
2022/05/23 13:42:36;;;;;;;;;;;;;;;27.43;48.69;98783.88;5003621;28;7274;-75
2022/05/23 13:45:14;;;;;;;;;;;;;;;28.09;48.10;98772.84;5003720;28;6863;-75
2022/05/23 13:47:59;;;;;;;;;;;;;;;28.83;46.98;98762.94;5007831;28;6804;-75
2022/05/23 13:50:38;;;;;;;;;;;;;;;29.48;45.53;98748.84;4979499;28;6816;-75
2022/05/23 13:53:25;;;;;;;;;;;;;;;30.15;44.29;98742.38;5000027;28;6820;-75
2022/05/23 13:55:51;;;;;;;;;;;;;;;30.81;43.59;98736.69;4979916;28;7019;-75
2022/05/23 13:58:29;;;;;;;;;;;;;;;31.22;41.64;98747.34;5000374;28;7027;-75
2022/05/23 14:01:14;;;;;;;;;;;;;;;31.45;40.78;98746.72;5004552;28;7027;-74
2022/05/23 14:04:01;;;;;;;;;;;;;;;31.50;39.86;98764.13;4978264;28;7225;-74
2022/05/23 14:06:38;;;;;;;;;;;;;;;31.28;39.03;98752.25;5002536;28;7118;-73
2022/05/23 14:09:07;;;;;;;;;;;;;;;30.93;39.23;98755.34;5005873;28;7105;-73
2022/05/23 14:11:51;;;;;;;;;;;;;;;30.59;39.39;98758.28;5005819;28;6880;-73
2022/05/23 14:14:37;;;;;;;;;;;;;;;30.30;40.23;98745.03;5004461;28;6812;-73
2022/05/23 14:17:19;;;;;;;;;;;;;;;30.09;40.30;98750.69;4995198;28;6973;-73
2022/05/23 14:19:53;;;;;;;;;;;;;;;29.98;41.11;98734.56;4989470;28;6903;-73
2022/05/23 14:22:31;;;;;;;;;;;;;;;29.99;40.97;98737.13;4993959;28;6849;-73
2022/05/23 14:25:00;;;;;;;;;;;;;;;29.99;40.78;98737.13;5005567;28;6804;-73
2022/05/23 14:27:31;;;;;;;;;;;;;;;29.89;40.48;98735.97;4985451;28;6950;-73
2022/05/23 14:30:23;;;;;;;;;;;;;;;29.73;40.46;98725.47;5006018;28;6816;-73
2022/05/23 14:32:57;;;;;;;;;;;;;;;29.54;41.19;98731.81;4981423;28;7209;-73
2022/05/23 14:35:32;;;;;;;;;;;;;;;29.40;41.27;98729.94;5007451;28;6827;-74
2022/05/23 14:37:58;;;;;;;;;;;;;;;29.34;41.52;98720.56;4989081;28;7996;-74